Latest Weather Observations for Curtin

IDW60801

Issued at 3:33 pm WST Tuesday 28 June 2016 (issued every 30 minutes, with the page automatically refreshed every 10 minutes)

About weather observations | Map of weather stations | Latest weather observations for WA | Other Formats
Station Details ID: 003080 Name: CURTIN AERO Lat: -17.58 Lon: 123.83 Height: 77.5 m
Data from the previous 72 hours. | See also: Recent months at Curtin
Date/Time
WST
Temp
°C
App
Temp
°C
Dew
Point
°C
Rel
Hum
%
Delta-T
°C
Wind Press
QNH
hPa
Press
MSL
hPa
Rain since
9am
mm
Dir  Spd
km/h
Gust
km/h
Spd
kts
Gust
kts
28/03:30pm 34.1 31.9 10.7 24 13.7 NE 13 17 7 9 1012.0 1011.7 0.0
28/03:00pm 34.2 32.0 10.7 24 13.7 NNE 13 17 7 9 1011.9 1011.6 0.0
28/02:30pm 33.9 32.4 10.5 24 13.6 NE 9 13 5 7 1011.9 1011.6 0.0
28/02:00pm 34.3 32.7 11.4 25 13.5 NNE 11 20 6 11 1012.1 1011.8 0.0
28/01:30pm 34.6 33.4 11.7 25 13.6 E 9 17 5 9 1012.2 1011.9 0.0
28/01:00pm 32.9 31.6 11.4 27 12.6 E 9 19 5 10 1012.5 1012.2 0.0
28/12:30pm 33.0 31.6 12.1 28 12.4 ENE 11 20 6 11 1012.9 1012.6 0.0
28/12:00pm 32.4 30.8 11.6 28 12.2 NE 11 20 6 11 1013.2 1012.9 0.0
28/11:30am 33.3 32.3 13.4 30 12.1 NNE 11 20 6 11 1013.9 1013.6 0.0
28/11:00am 31.9 29.9 12.7 31 11.4 NNE 15 26 8 14 1014.4 1014.1 0.0
28/10:30am 31.1 28.7 12.5 32 11.0 ENE 17 26 9 14 1014.9 1014.5 0.0
28/10:00am 31.2 28.9 13.0 33 10.9 NE 17 24 9 13 1015.2 1014.8 0.0
28/09:30am 29.8 26.9 12.3 34 10.3 ENE 19 26 10 14 1015.3 1014.9 0.0
28/09:00am 28.4 26.1 11.9 36 9.6 ENE 15 24 8 13 1015.3 1014.9 0.0
28/08:30am 26.9 23.9 11.8 39 8.7 ENE 19 24 10 13 1015.1 1014.7 0.0
28/08:00am 25.4 22.6 11.2 41 8.0 ENE 17 24 9 13 1014.8 1014.4 0.0
28/07:30am 23.0 20.2 10.1 44 7.1 E 15 20 8 11 1014.7 1014.3 0.0
28/07:00am 21.1 18.3 8.7 45 6.6 E 13 20 7 11 1014.2 1013.9 0.0
28/06:30am 19.4 16.8 7.8 47 6.0 ESE 11 15 6 8 1013.9 1013.6 0.0
28/06:00am 19.3 16.2 7.4 46 6.1 SE 13 17 7 9 1013.5 1013.2 0.0
28/05:30am 19.3 16.6 7.4 46 6.1 ESE 11 17 6 9 1013.3 1013.0 0.0
28/05:00am 19.2 16.4 7.0 45 6.2 SE 11 15 6 8 1012.9 1012.6 0.0
28/04:30am 19.8 17.0 6.9 43 6.5 SE 11 15 6 8 1012.7 1012.4 0.0
28/04:00am 19.9 16.6 6.6 42 6.7 SE 13 17 7 9 1012.7 1012.4 0.0
28/03:30am 20.3 16.7 6.6 41 6.9 SE 15 20 8 11 1012.6 1012.3 0.0
28/03:00am 20.8 16.8 6.7 40 7.2 SE 17 22 9 12 1012.4 1012.1 0.0
28/02:30am 21.1 17.6 7.0 40 7.2 SE 15 20 8 11 1012.4 1012.1 0.0
28/02:00am 21.7 17.8 7.2 39 7.5 SE 17 22 9 12 1012.3 1012.0 0.0
28/01:30am 22.1 18.2 7.1 38 7.7 SE 17 24 9 13 1012.4 1012.1 0.0
28/01:00am 22.5 18.6 7.1 37 8.0 ESE 17 22 9 12 1012.8 1012.5 0.0
28/12:30am 23.1 18.8 7.2 36 8.3 ESE 19 26 10 14 1013.0 1012.7 0.0
28/12:00am 23.6 19.8 7.7 36 8.4 ESE 17 26 9 14 1013.2 1012.9 0.0
 
Date/Time
WST
Temp
°C
App
Temp
°C
Dew
Point
°C
Rel
Hum
%
Delta-T
°C
Wind Press
QNH
hPa
Press
MSL
hPa
Rain since
9am
mm
Dir  Spd
km/h
Gust
km/h
Spd
kts
Gust
kts
27/11:30pm 23.7 20.1 8.2 37 8.2 SE 17 26 9 14 1013.3 1013.0 0.0
27/11:00pm 23.7 20.2 8.9 39 8.0 SE 17 22 9 12 1013.5 1013.2 0.0
27/10:30pm 23.3 20.6 9.0 40 7.7 SE 13 17 7 9 1013.7 1013.4 0.0
27/10:00pm 23.3 20.3 9.3 41 7.6 SE 15 22 8 12 1013.9 1013.6 0.0
27/09:30pm 23.5 20.8 9.1 40 7.8 SE 13 19 7 10 1013.9 1013.6 0.0
27/09:00pm 24.0 21.1 9.6 40 7.9 SE 15 20 8 11 1013.9 1013.6 0.0
27/08:30pm 23.9 21.3 9.5 40 7.9 SE 13 19 7 10 1013.9 1013.6 0.0
27/08:00pm 23.5 21.5 10.2 43 7.3 SE 11 15 6 8 1013.9 1013.6 0.0
27/07:30pm 23.2 21.5 9.9 43 7.3 SE 9 11 5 6 1013.7 1013.4 0.0
27/07:00pm 24.0 22.0 10.3 42 7.6 SSE 11 13 6 7 1013.2 1012.9 0.0
27/06:30pm 24.8 22.8 10.3 40 8.1 SE 11 13 6 7 1013.0 1012.7 0.0
27/06:00pm 25.6 24.0 10.2 38 8.6 SE 9 11 5 6 1012.6 1012.3 0.0
27/05:30pm 27.0 25.4 10.2 35 9.4 SE 9 15 5 8 1012.3 1012.0 0.0
27/05:00pm 28.3 25.9 10.0 32 10.3 SE 13 24 7 13 1011.9 1011.6 0.0
27/04:30pm 29.1 26.4 10.3 31 10.7 ESE 15 20 8 11 1011.6 1011.3 0.0
27/04:00pm 29.7 26.2 10.3 30 11.0 SE 19 24 10 13 1011.4 1011.1 0.0
27/03:30pm 29.7 26.1 9.8 29 11.2 SSE 19 28 10 15 1011.2 1010.9 0.0
27/03:00pm 30.0 26.8 10.0 29 11.3 SE 17 24 9 13 1011.1 1010.8 0.0
27/02:30pm 30.0 26.8 10.0 29 11.3 SE 17 22 9 12 1011.1 1010.8 0.0
27/02:00pm 29.8 26.2 9.9 29 11.3 SSE 19 28 10 15 1011.3 1011.0 0.0
27/01:30pm 29.6 26.3 9.7 29 11.2 SSE 17 24 9 13 1011.6 1011.3 0.0
27/01:00pm 28.9 25.5 9.1 29 11.0 SE 17 28 9 15 1012.0 1011.7 0.0
27/12:30pm 29.1 25.5 9.8 30 10.9 SSE 19 26 10 14 1012.6 1012.3 0.0
27/12:00pm 27.8 24.0 9.1 31 10.3 SSE 19 26 10 14 1013.1 1012.8 0.0
27/11:30am 26.8 22.6 8.3 31 10.0 SE 20 30 11 16 1013.7 1013.4 0.0
27/11:00am 26.1 21.9 8.1 32 9.7 SE 20 32 11 17 1014.4 1014.1 0.0
27/10:30am 24.9 20.6 8.0 34 9.0 SE 20 28 11 15 1014.9 1014.5 0.0
27/10:00am 24.7 20.6 7.8 34 9.0 ESE 19 28 10 15 1015.1 1014.7 0.0
27/09:30am 22.9 18.4 7.1 36 8.2 SE 20 33 11 18 1015.3 1014.9 0.0
27/09:00am 22.2 16.9 6.8 37 7.9 SE 24 33 13 18 1015.5 1015.1 0.0
27/08:30am 20.9 16.2 6.1 38 7.4 SE 20 32 11 17 1015.5 1015.1 0.0
27/08:00am 19.8 14.1 5.1 38 7.2 SE 24 33 13 18 1015.3 1014.9 0.0
27/07:30am 18.8 13.5 4.9 40 6.7 SE 22 32 12 17 1015.1 1014.7 0.0
27/07:00am 17.7 12.2 3.9 40 6.5 SE 22 32 12 17 1014.9 1014.5 0.0
27/06:30am 17.1 11.9 3.8 41 6.2 SE 20 30 11 16 1014.8 1014.4 0.0
27/06:00am 17.3 12.1 3.6 40 6.4 SE 20 28 11 15 1014.5 1014.2 0.0
27/05:30am 17.6 12.3 3.1 38 6.7 SE 20 30 11 16 1014.2 1013.9 0.0
27/05:00am 17.9 12.2 2.6 36 7.0 SE 22 32 12 17 1014.0 1013.7 0.0
27/04:30am 18.0 12.8 2.7 36 7.0 SE 19 24 10 13 1014.0 1013.7 0.0
27/04:00am 18.2 12.8 2.5 35 7.2 SSE 20 30 11 16 1013.9 1013.6 0.0
27/03:30am 18.5 13.3 2.4 34 7.4 SE 19 30 10 16 1013.9 1013.6 0.0
27/03:00am 19.0 13.8 2.4 33 7.7 SSE 19 26 10 14 1013.9 1013.6 0.0
27/02:30am 19.4 14.0 2.3 32 7.9 SSE 20 28 11 15 1013.9 1013.6 0.0
27/02:00am 19.8 14.4 2.6 32 8.0 SSE 20 28 11 15 1014.0 1013.7 0.0
27/01:30am 20.4 14.3 2.7 31 8.3 SSE 24 33 13 18 1014.2 1013.9 0.0
27/01:00am 21.0 15.1 4.1 33 8.2 SSE 24 32 13 17 1014.8 1014.4 0.0
27/12:30am 21.3 16.2 6.0 37 7.7 SSE 22 33 12 18 1014.9 1014.5 0.0
27/12:00am 22.0 16.9 7.8 40 7.4 SSE 24 33 13 18 1015.0 1014.6 0.0
 
Date/Time
WST
Temp
°C
App
Temp
°C
Dew
Point
°C
Rel
Hum
%
Delta-T
°C
Wind Press
QNH
hPa
Press
MSL
hPa
Rain since
9am
mm
Dir  Spd
km/h
Gust
km/h
Spd
kts
Gust
kts
26/11:30pm 22.4 17.4 9.6 44 6.9 SSE 26 35 14 19 1015.0 1014.6 0.0
26/11:00pm 22.9 19.1 11.0 47 6.6 SSE 22 35 12 19 1014.9 1014.5 0.0
26/10:30pm 23.2 20.3 12.8 52 6.0 SSE 20 28 11 15 1015.0 1014.6 0.0
26/10:00pm 23.4 20.8 13.8 54 5.6 SSE 20 28 11 15 1015.1 1014.7 0.0
26/09:30pm 22.8 21.5 14.9 61 4.7 SSE 15 19 8 10 1015.0 1014.6 0.0
26/09:00pm 23.3 22.1 15.1 60 4.9 SSE 15 17 8 9 1014.8 1014.4 0.0
26/08:30pm 23.6 22.9 15.4 60 4.9 SSE 13 17 7 9 1014.5 1014.2 0.0
26/08:00pm 24.1 23.5 15.6 59 5.1 SSE 13 19 7 10 1014.1 1013.8 0.0
26/07:30pm 24.8 23.8 15.7 57 5.5 SSE 15 17 8 9 1013.8 1013.5 0.0
26/07:00pm 25.1 24.3 16.0 57 5.6 SSE 15 19 8 10 1013.4 1013.1 0.0
26/06:30pm 25.8 25.4 16.1 55 6.0 SSE 13 17 7 9 1013.0 1012.7 0.0
26/06:00pm 26.4 26.2 15.8 52 6.5 SSE 11 15 6 8 1012.6 1012.3 0.0
26/05:30pm 27.4 27.1 15.4 48 7.3 SSE 11 13 6 7 1012.2 1011.9 0.0
26/05:00pm 28.6 27.3 15.8 45 7.9 SSE 17 24 9 13 1011.9 1011.6 0.0
26/04:30pm 29.3 28.4 15.8 44 8.4 SSE 15 20 8 11 1011.7 1011.4 0.0
26/04:00pm 29.7 28.4 15.8 43 8.6 SSE 17 26 9 14 1011.3 1011.0 0.0
26/03:30pm 29.7 28.5 16.1 43 8.5 SSE 17 24 9 13 1011.2 1010.9 0.0
26/03:00pm 29.8 28.4 16.6 45 8.3 S 19 24 10 13 1011.1 1010.8 0.0
26/02:30pm 29.6 28.3 16.8 46 8.1 S 19 26 10 14 1011.2 1010.9 0.0
26/02:00pm 29.4 28.4 16.6 46 8.0 SSE 17 26 9 14 1011.5 1011.2 0.0
26/01:30pm 29.1 28.1 16.6 46 7.8 SSE 17 24 9 13 1011.9 1011.6 0.0
26/01:00pm 28.6 27.3 16.8 48 7.4 SSE 19 26 10 14 1012.2 1011.9 0.0
26/12:30pm 27.9 26.5 16.5 50 7.1 SSE 19 28 10 15 1012.7 1012.4 0.0
26/12:00pm 27.7 26.2 16.3 49 7.1 SE 19 28 10 15 1013.2 1012.9 0.0
26/11:30am 27.5 25.5 16.5 51 6.8 SE 22 32 12 17 1013.8 1013.5 0.0
26/11:00am 26.6 24.9 16.2 52 6.4 SE 20 30 11 16 1014.4 1014.1 0.0
26/10:30am 25.9 24.2 16.2 55 6.0 SE 20 33 11 18 1015.0 1014.6 0.0
26/10:00am 25.4 23.2 16.0 56 5.8 SSE 22 30 12 16 1015.3 1014.9 0.0
26/09:30am 24.1 21.9 15.9 60 5.0 SE 22 32 12 17 1015.6 1015.2 0.0
26/09:00am 23.5 20.9 15.8 62 4.7 SE 24 32 13 17 1015.8 1015.4 0.0
26/08:30am 23.2 20.3 16.0 64 4.4 SSE 26 35 14 19 1015.8 1015.4 0.0
26/08:00am 22.4 19.3 15.7 66 4.0 SSE 26 41 14 22 1015.6 1015.2 0.0
26/07:30am 21.6 19.4 15.9 70 3.4 SSE 22 32 12 17 1015.4 1015.0 0.0
26/07:00am 20.7 19.4 15.9 74 2.9 S 17 22 9 12 1015.2 1014.8 0.0
26/06:30am 20.4 19.1 15.8 75 2.8 SSE 17 24 9 13 1014.9 1014.5 0.0
26/06:00am 20.5 19.2 15.9 75 2.8 SE 17 24 9 13 1014.1 1013.8 0.0
26/05:30am 20.3 19.6 16.5 79 2.3 SE 15 20 8 11 1013.5 1013.2 0.0
26/05:00am 20.0 20.5 17.4 85 1.6 SE 11 17 6 9 1013.0 1012.7 0.0
26/04:30am 20.5 19.7 17.9 85 1.6 S 19 24 10 13 1012.8 1012.5 0.0
26/04:00am 20.8 20.3 18.6 87 1.4 S 19 22 10 12 1012.8 1012.5 0.0
26/03:30am 21.0 20.6 18.8 87 1.4 SSW 19 22 10 12 1012.8 1012.5 0.0
26/03:00am 20.9 21.5 18.7 87 1.4 SSW 13 17 7 9 1013.0 1012.7 0.0
26/02:30am 21.4 21.8 19.0 86 1.5 SSW 15 17 8 9 1012.9 1012.6 0.0
26/02:00am 21.6 21.6 19.0 85 1.6 SSW 17 19 9 10 1012.9 1012.6 0.0
26/01:30am 21.5 21.9 19.1 86 1.5 SSW 15 17 8 9 1013.1 1012.8 0.0
26/01:00am 21.6 22.4 19.0 85 1.6 SW 13 15 7 8 1013.3 1013.0 0.0
26/12:30am 21.7 22.3 18.5 82 2.0 SW 13 15 7 8 1013.4 1013.1 0.0
26/12:00am 22.0 22.8 18.2 79 2.4 SW 11 13 6 7 1013.4 1013.1 0.0
 
Date/Time
WST
Temp
°C
App
Temp
°C
Dew
Point
°C
Rel
Hum
%
Delta-T
°C
Wind Press
QNH
hPa
Press
MSL
hPa
Rain since
9am
mm
Dir  Spd
km/h
Gust
km/h
Spd
kts
Gust
kts
25/11:30pm 22.8 22.9 18.3 76 2.8 SW 15 19 8 10 1013.4 1013.1 0.0
25/11:00pm 22.8 22.8 17.3 71 3.4 WSW 13 15 7 8 1013.5 1013.2 0.0
25/10:30pm 23.3 22.8 15.9 63 4.5 WSW 13 15 7 8 1013.5 1013.2 0.0
25/10:00pm 23.3 23.1 14.6 58 5.2 WSW 9 9 5 5 1013.5 1013.2 0.0
25/09:30pm 24.5 24.0 14.9 55 5.8 WSW 11 15 6 8 1013.5 1013.2 0.0
25/09:00pm 25.1 24.4 15.4 55 5.9 WSW 13 15 7 8 1013.4 1013.1 0.0
25/08:30pm 23.7 23.6 13.8 53 5.8 W 7 9 4 5 1013.2 1012.9 0.0
25/08:00pm 25.0 23.9 14.2 51 6.4 WSW 13 15 7 8 1013.1 1012.8 0.0
25/07:30pm 25.7 24.1 12.9 45 7.5 WNW 13 15 7 8 1012.6 1012.3 0.0
25/07:00pm 26.0 24.7 11.4 40 8.3 NW 9 11 5 6 1012.2 1011.9 0.0
25/06:30pm 24.6 22.9 8.5 36 8.7 NW 7 9 4 5 1011.7 1011.4 0.0
25/06:00pm 26.6 25.1 9.0 33 9.7 N 7 9 4 5 1011.2 1010.9 0.0
25/05:30pm 29.8 28.3 9.3 28 11.5 N 7 11 4 6 1010.8 1010.5 0.0
25/05:00pm 32.0 30.0 10.1 26 12.6 N 11 15 6 8 1010.4 1010.1 0.0
25/04:30pm 33.1 30.6 9.8 24 13.4 NNW 13 20 7 11 1010.4 1010.1 0.0
25/04:00pm 34.0 31.9 9.9 23 13.9 NW 11 19 6 10 1010.2 1009.9 0.0

Other Formats:

Comma delimited format used in spreadsheet applications
http://www.bom.gov.au/fwo/IDW60801/IDW60801.94204.axf

JavaScript Object Notation format (JSON) in row-major order
http://www.bom.gov.au/fwo/IDW60801/IDW60801.94204.json